createdAt,value
2017-09-20T00:00:39.470Z,99.90
2017-09-20T00:03:07.336Z,99.90
2017-09-20T00:05:35.026Z,99.90
2017-09-20T00:08:02.751Z,99.90
2017-09-20T00:10:30.501Z,99.90
2017-09-20T00:12:59.040Z,99.90
2017-09-20T00:15:27.012Z,99.90
2017-09-20T00:17:54.828Z,99.90
2017-09-20T00:20:22.508Z,99.90
2017-09-20T00:22:50.240Z,99.90
2017-09-20T00:25:18.945Z,99.90
2017-09-20T00:27:46.679Z,99.90
2017-09-20T00:30:15.211Z,99.90
2017-09-20T00:32:43.880Z,99.90
2017-09-20T00:35:12.456Z,99.90
2017-09-20T00:37:40.216Z,99.90
2017-09-20T00:40:08.663Z,99.90
2017-09-20T00:42:36.321Z,99.90
2017-09-20T00:45:04.068Z,99.90
2017-09-20T00:47:31.755Z,99.90
2017-09-20T00:49:59.456Z,99.90
2017-09-20T00:52:27.311Z,99.90
2017-09-20T00:54:54.992Z,99.90
2017-09-20T00:57:23.571Z,99.90
2017-09-20T00:59:52.192Z,99.90
2017-09-20T01:02:19.838Z,99.90
2017-09-20T01:04:47.625Z,99.90
2017-09-20T01:07:15.351Z,99.90
2017-09-20T01:09:43.791Z,99.90
2017-09-20T01:12:11.349Z,99.90
2017-09-20T01:14:39.061Z,99.90
2017-09-20T01:17:07.058Z,99.90
2017-09-20T01:19:34.697Z,99.90
2017-09-20T01:22:14.205Z,99.90
2017-09-20T01:24:41.770Z,99.90
2017-09-20T01:27:10.126Z,99.90
2017-09-20T01:29:38.071Z,99.90
2017-09-20T01:32:05.897Z,99.90
2017-09-20T01:34:34.628Z,99.90
2017-09-20T01:37:02.456Z,99.90
2017-09-20T01:39:30.979Z,99.90
2017-09-20T01:41:59.457Z,99.90
2017-09-20T01:44:27.319Z,99.90
2017-09-20T01:46:54.985Z,99.90
2017-09-20T01:49:22.834Z,99.90
2017-09-20T01:51:51.391Z,99.90
2017-09-20T01:54:19.142Z,99.90
2017-09-20T01:56:46.969Z,99.90
2017-09-20T01:59:14.723Z,99.90
2017-09-20T02:01:42.566Z,99.90
2017-09-20T02:04:10.199Z,99.90
2017-09-20T02:06:38.854Z,99.90
2017-09-20T02:09:06.561Z,99.90
2017-09-20T02:11:34.873Z,99.90
2017-09-20T02:14:02.609Z,99.90
2017-09-20T02:16:30.954Z,99.90
2017-09-20T02:18:59.392Z,99.90
2017-09-20T02:21:27.727Z,99.90
2017-09-20T02:23:55.327Z,99.90
2017-09-20T02:26:23.663Z,99.90
2017-09-20T02:28:51.253Z,99.90
2017-09-20T02:31:19.588Z,99.90
2017-09-20T02:33:47.150Z,99.90
2017-09-20T02:36:14.735Z,99.90
2017-09-20T02:38:42.330Z,99.90
2017-09-20T02:41:10.719Z,99.90
2017-09-20T02:43:38.315Z,99.90
2017-09-20T02:46:05.902Z,99.90
2017-09-20T02:48:33.467Z,99.90
2017-09-20T02:51:01.027Z,99.90
2017-09-20T02:53:28.769Z,99.90
2017-09-20T02:55:56.334Z,99.90
2017-09-20T02:58:23.983Z,99.90
2017-09-20T03:00:51.565Z,99.90
2017-09-20T03:03:19.138Z,99.90
2017-09-20T03:05:46.694Z,99.90
2017-09-20T03:08:14.282Z,99.90
2017-09-20T03:10:42.614Z,99.90
2017-09-20T03:13:10.165Z,99.90
2017-09-20T03:15:37.754Z,99.90
2017-09-20T03:18:05.330Z,99.90
2017-09-20T03:20:32.909Z,99.90
2017-09-20T03:23:01.246Z,99.90
2017-09-20T03:25:28.838Z,99.90
2017-09-20T03:27:57.319Z,99.90
2017-09-20T03:30:24.884Z,99.90
2017-09-20T03:32:53.334Z,99.90
2017-09-20T03:35:21.066Z,99.90
2017-09-20T03:37:48.642Z,99.90
2017-09-20T03:40:16.215Z,99.90
2017-09-20T03:42:43.807Z,99.90
2017-09-20T03:45:11.389Z,99.90
2017-09-20T03:47:38.972Z,99.90
2017-09-20T03:50:07.210Z,99.90
2017-09-20T03:52:34.801Z,99.90
2017-09-20T03:55:02.387Z,99.90
2017-09-20T03:57:29.977Z,99.90
2017-09-20T03:59:57.570Z,99.90
2017-09-20T04:02:25.169Z,99.90
2017-09-20T04:04:52.749Z,99.90
2017-09-20T04:07:20.337Z,99.90
2017-09-20T04:09:47.902Z,99.90
2017-09-20T04:12:15.503Z,99.90
2017-09-20T04:14:43.056Z,99.90
2017-09-20T04:17:10.650Z,99.90
2017-09-20T04:19:38.244Z,99.90
2017-09-20T04:22:05.810Z,99.90
2017-09-20T04:24:34.178Z,99.90
2017-09-20T04:27:01.757Z,99.90
2017-09-20T04:29:30.153Z,99.90
2017-09-20T04:31:57.788Z,99.90
2017-09-20T04:34:25.347Z,99.90
2017-09-20T04:36:52.946Z,99.90
2017-09-20T04:39:20.524Z,99.90
2017-09-20T04:41:48.120Z,99.90
2017-09-20T04:44:15.680Z,99.90
2017-09-20T04:46:43.265Z,99.90
2017-09-20T04:49:11.616Z,99.90
2017-09-20T04:51:39.258Z,99.90
2017-09-20T04:54:06.949Z,99.90
2017-09-20T04:56:34.539Z,99.90
2017-09-20T04:59:02.890Z,99.90
2017-09-20T05:01:30.507Z,99.90
2017-09-20T05:03:58.117Z,99.90
2017-09-20T05:06:25.732Z,99.90
2017-09-20T05:08:53.292Z,99.90
2017-09-20T05:11:20.878Z,99.90
2017-09-20T05:13:49.239Z,99.90
2017-09-20T05:16:16.826Z,99.90
2017-09-20T05:18:44.430Z,99.90
2017-09-20T05:21:12.784Z,99.90
2017-09-20T05:23:40.369Z,99.90
2017-09-20T05:26:08.710Z,99.90
2017-09-20T05:28:36.315Z,99.90
2017-09-20T05:31:04.658Z,99.90
2017-09-20T05:33:32.302Z,99.90
2017-09-20T05:35:59.881Z,99.90
2017-09-20T05:38:27.477Z,99.90
2017-09-20T05:40:55.051Z,99.90
2017-09-20T05:43:22.631Z,99.90
2017-09-20T05:45:50.198Z,99.90
2017-09-20T05:48:17.776Z,99.90
2017-09-20T05:50:45.363Z,99.90
2017-09-20T05:53:13.858Z,99.90
2017-09-20T05:55:41.434Z,99.90
2017-09-20T05:58:09.306Z,99.90
2017-09-20T06:00:36.910Z,99.90
2017-09-20T06:03:04.490Z,99.90
2017-09-20T06:05:32.122Z,99.90
2017-09-20T06:07:59.819Z,99.90
2017-09-20T06:10:27.402Z,99.90
2017-09-20T06:12:55.736Z,99.90
2017-09-20T06:15:23.336Z,99.90
2017-09-20T06:17:51.062Z,99.90
2017-09-20T06:20:18.691Z,99.90
2017-09-20T06:22:46.301Z,99.90
2017-09-20T06:25:13.885Z,99.90
2017-09-20T06:27:41.448Z,99.90
2017-09-20T06:30:09.811Z,99.90
2017-09-20T06:32:37.371Z,99.90
2017-09-20T06:35:04.959Z,99.90
2017-09-20T06:37:32.617Z,99.90
2017-09-20T06:40:00.202Z,99.90
2017-09-20T06:42:27.814Z,99.90
2017-09-20T06:44:55.399Z,99.90
2017-09-20T06:47:23.003Z,99.90
2017-09-20T06:49:50.583Z,99.90
2017-09-20T06:52:18.169Z,99.90
2017-09-20T06:54:45.859Z,99.90
2017-09-20T06:57:13.529Z,99.90
2017-09-20T06:59:41.127Z,99.90
2017-09-20T07:02:08.702Z,99.90
2017-09-20T07:04:36.297Z,99.90
2017-09-20T07:07:03.890Z,99.90
2017-09-20T07:09:31.467Z,99.90
2017-09-20T07:11:59.064Z,99.90
2017-09-20T07:14:26.641Z,99.90
2017-09-20T07:16:54.998Z,99.90
2017-09-20T07:19:22.842Z,99.90
2017-09-20T07:21:50.455Z,99.90
2017-09-20T07:24:18.832Z,99.90
2017-09-20T07:26:47.382Z,99.90
2017-09-20T07:29:15.011Z,99.90
2017-09-20T07:31:42.592Z,99.90
2017-09-20T07:34:10.157Z,99.90
2017-09-20T07:36:37.755Z,99.90
2017-09-20T07:39:05.336Z,99.90
2017-09-20T07:41:33.712Z,99.90
2017-09-20T07:44:02.071Z,99.90
2017-09-20T07:46:29.658Z,99.90
2017-09-20T07:48:58.001Z,99.90
2017-09-20T07:51:25.611Z,99.90
2017-09-20T07:53:53.355Z,99.90
2017-09-20T07:56:21.746Z,99.90
2017-09-20T07:58:50.097Z,99.90
2017-09-20T08:01:17.690Z,99.90
2017-09-20T08:03:46.079Z,99.90
2017-09-20T08:06:14.110Z,99.90
2017-09-20T08:08:41.732Z,99.90
2017-09-20T08:11:09.300Z,99.90
2017-09-20T08:13:36.900Z,99.90
2017-09-20T08:16:05.247Z,99.90
2017-09-20T08:18:32.824Z,99.90
2017-09-20T08:21:00.468Z,99.90
2017-09-20T08:23:28.050Z,99.90
2017-09-20T08:25:55.639Z,99.90
2017-09-20T08:28:23.966Z,99.90
2017-09-20T08:30:51.570Z,99.90
2017-09-20T08:33:19.169Z,99.90
2017-09-20T08:35:46.760Z,99.90
2017-09-20T08:38:14.342Z,99.90
2017-09-20T08:40:41.914Z,99.90
2017-09-20T08:43:09.479Z,99.90
2017-09-20T08:45:37.075Z,99.90
2017-09-20T08:48:04.648Z,99.90
2017-09-20T08:50:32.242Z,99.90
2017-09-20T09:04:27.554Z,99.90
2017-09-20T09:06:55.167Z,99.90
2017-09-20T09:09:22.761Z,99.90
2017-09-20T09:11:50.446Z,99.90
2017-09-20T09:14:18.814Z,99.90
2017-09-20T09:16:46.390Z,99.90
2017-09-20T09:19:14.042Z,99.90
2017-09-20T09:30:26.521Z,99.90
2017-09-20T09:32:54.101Z,99.90
2017-09-20T09:35:22.455Z,99.90
2017-09-20T09:37:50.170Z,99.90
2017-09-20T09:40:17.754Z,99.90
2017-09-20T09:42:45.425Z,99.90
2017-09-20T09:45:13.024Z,99.90
2017-09-20T09:47:40.591Z,99.90
2017-09-20T09:50:08.950Z,99.90
2017-09-20T09:52:36.542Z,99.90
2017-09-20T09:55:04.884Z,99.90
2017-09-20T09:57:32.462Z,99.90
2017-09-20T10:00:00.087Z,99.90
2017-09-20T10:02:27.701Z,99.90
2017-09-20T10:04:56.031Z,99.90
2017-09-20T10:07:23.616Z,99.90
2017-09-20T10:09:51.199Z,99.90
2017-09-20T10:12:19.585Z,99.90
2017-09-20T10:14:48.005Z,99.90
2017-09-20T10:17:15.595Z,99.90
2017-09-20T10:19:43.187Z,99.90
2017-09-20T10:22:44.931Z,99.90
2017-09-20T10:25:12.518Z,99.90
2017-09-20T10:27:40.861Z,99.90
2017-09-20T10:30:08.414Z,99.90
2017-09-20T10:32:36.006Z,99.90
2017-09-20T10:35:03.559Z,99.90
2017-09-20T10:37:31.119Z,99.90
2017-09-20T10:39:58.716Z,99.90
2017-09-20T10:42:27.043Z,99.90
2017-09-20T10:44:54.644Z,99.90
2017-09-20T10:47:22.217Z,99.90
2017-09-20T10:49:49.898Z,99.90
2017-09-20T10:52:17.459Z,99.90
2017-09-20T10:54:45.016Z,99.90
2017-09-20T10:57:12.585Z,99.90
2017-09-20T10:59:40.149Z,99.90
2017-09-20T11:02:07.733Z,99.90
2017-09-20T11:04:35.323Z,99.90
2017-09-20T11:07:02.877Z,99.90
2017-09-20T11:09:30.524Z,99.90
2017-09-20T11:11:58.090Z,99.90
2017-09-20T11:14:25.676Z,99.90
2017-09-20T11:16:53.241Z,99.90
2017-09-20T11:19:20.809Z,99.90
2017-09-20T11:21:48.387Z,99.90
2017-09-20T11:24:16.790Z,99.90
2017-09-20T11:26:44.416Z,99.90
2017-09-20T11:29:12.814Z,99.90
2017-09-20T11:31:41.155Z,99.90
2017-09-20T11:34:08.721Z,99.90
2017-09-20T11:36:36.408Z,99.90
2017-09-20T11:39:03.967Z,99.90
2017-09-20T11:41:32.333Z,99.90
2017-09-20T11:44:09.935Z,99.90
2017-09-20T11:46:37.537Z,99.90
2017-09-20T11:49:05.160Z,99.90
2017-09-20T11:51:32.736Z,99.90
2017-09-20T11:54:01.213Z,99.90
2017-09-20T11:56:28.767Z,99.90
2017-09-20T11:58:56.406Z,99.90
2017-09-20T12:01:23.977Z,99.90
2017-09-20T12:03:51.575Z,99.90
2017-09-20T12:06:19.938Z,99.90
2017-09-20T12:08:47.500Z,99.90
2017-09-20T12:11:15.174Z,99.90
2017-09-20T12:13:42.742Z,99.90
2017-09-20T12:16:10.328Z,99.90
2017-09-20T12:18:38.682Z,99.90
2017-09-20T12:21:06.362Z,99.90
2017-09-20T12:23:34.694Z,99.90
2017-09-20T12:26:02.322Z,99.90
2017-09-20T12:28:29.915Z,99.90
2017-09-20T12:30:57.492Z,99.90
2017-09-20T12:33:25.061Z,99.90
2017-09-20T12:35:52.654Z,99.90
2017-09-20T12:38:21.030Z,99.90
2017-09-20T12:40:49.419Z,99.90
2017-09-20T12:43:17.766Z,98.60
2017-09-20T12:45:45.377Z,99.20
2017-09-20T12:48:12.947Z,97.00
2017-09-20T12:50:40.582Z,98.30
2017-09-20T12:53:08.990Z,98.30
2017-09-20T12:55:36.641Z,97.50
2017-09-20T12:58:04.970Z,95.40
2017-09-20T13:00:32.552Z,95.30
2017-09-20T13:03:00.170Z,93.70
2017-09-20T13:05:27.912Z,80.40
2017-09-20T13:07:56.259Z,80.50
2017-09-20T13:10:23.872Z,78.60
2017-09-20T13:12:51.546Z,87.00
2017-09-20T13:15:19.112Z,82.60
2017-09-20T13:17:46.734Z,78.00
2017-09-20T13:20:14.425Z,92.10
2017-09-20T13:22:42.036Z,99.20
2017-09-20T13:25:09.595Z,99.90
2017-09-20T13:27:38.075Z,97.60
2017-09-20T13:30:05.668Z,96.50
2017-09-20T13:32:33.243Z,96.80
2017-09-20T13:35:00.808Z,91.70
2017-09-20T13:37:28.380Z,96.90
2017-09-20T13:39:55.982Z,99.90
2017-09-20T13:42:24.306Z,99.90
2017-09-20T13:44:51.893Z,99.90
2017-09-20T13:47:19.510Z,99.90
2017-09-20T13:49:47.079Z,99.90
2017-09-20T13:52:14.668Z,99.90
2017-09-20T13:54:42.272Z,99.90
2017-09-20T13:57:10.655Z,99.90
2017-09-20T13:59:39.009Z,99.90
2017-09-20T14:02:06.587Z,99.90
2017-09-20T14:04:34.922Z,99.90
2017-09-20T14:07:02.564Z,99.90
2017-09-20T14:09:30.106Z,99.90
2017-09-20T14:11:57.678Z,99.90
2017-09-20T14:14:25.239Z,99.90
2017-09-20T14:16:52.841Z,99.90
2017-09-20T14:19:20.495Z,99.90
2017-09-20T14:21:48.820Z,99.90
2017-09-20T14:24:16.424Z,99.90
2017-09-20T14:26:43.971Z,99.90
2017-09-20T14:29:11.521Z,99.90
2017-09-20T14:31:39.156Z,99.90
2017-09-20T14:34:06.774Z,99.90
2017-09-20T14:36:34.366Z,99.90
2017-09-20T14:39:01.934Z,99.90
2017-09-20T14:41:29.530Z,99.90
2017-09-20T14:43:57.137Z,99.90
2017-09-20T14:46:25.486Z,99.90
2017-09-20T14:48:53.839Z,99.90
2017-09-20T14:51:21.539Z,99.90
2017-09-20T14:53:49.891Z,99.90
2017-09-20T14:56:17.498Z,99.90
2017-09-20T14:58:45.396Z,99.90
2017-09-20T15:01:13.079Z,99.90
2017-09-20T15:03:40.649Z,99.90
2017-09-20T15:06:09.000Z,99.90
2017-09-20T15:08:37.106Z,99.90
2017-09-20T15:11:05.483Z,99.90
2017-09-20T15:13:33.102Z,99.90
2017-09-20T15:16:00.641Z,99.90
2017-09-20T15:18:28.250Z,99.90
2017-09-20T15:20:55.828Z,99.90
2017-09-20T15:23:24.282Z,99.90
2017-09-20T15:25:52.267Z,99.90
2017-09-20T15:28:19.877Z,99.90
2017-09-20T15:30:47.465Z,99.90
2017-09-20T15:33:15.039Z,99.90
2017-09-20T15:35:42.649Z,99.90
2017-09-20T15:38:11.046Z,99.90
2017-09-20T15:40:38.751Z,99.90
2017-09-20T15:43:06.317Z,99.90
2017-09-20T15:45:33.886Z,99.90
2017-09-20T15:48:01.472Z,99.90
2017-09-20T15:50:30.262Z,99.90
2017-09-20T15:52:57.918Z,99.90
2017-09-20T15:55:26.261Z,99.90
2017-09-20T15:57:53.839Z,99.90
2017-09-20T16:00:21.419Z,99.90
2017-09-20T16:02:49.002Z,99.90
2017-09-20T16:05:17.414Z,99.90
2017-09-20T16:07:45.004Z,99.90
2017-09-20T16:10:12.591Z,99.90
2017-09-20T16:12:40.926Z,99.90
2017-09-20T16:15:08.531Z,99.90
2017-09-20T16:17:36.238Z,99.90
2017-09-20T16:20:03.806Z,99.90
2017-09-20T16:22:31.362Z,99.90
2017-09-20T16:24:59.784Z,99.90
2017-09-20T16:27:27.499Z,99.90
2017-09-20T16:29:55.827Z,99.90
2017-09-20T16:32:23.414Z,99.90
2017-09-20T16:34:51.009Z,99.90
2017-09-20T16:37:19.376Z,99.90
2017-09-20T16:39:46.952Z,99.90
2017-09-20T16:42:15.331Z,99.90
2017-09-20T16:44:43.669Z,99.90
2017-09-20T16:47:11.276Z,99.90
2017-09-20T16:49:38.855Z,99.90
2017-09-20T16:52:07.215Z,99.90
2017-09-20T16:54:35.539Z,99.90
2017-09-20T16:57:03.111Z,99.90
2017-09-20T16:59:30.801Z,99.90
2017-09-20T17:01:58.484Z,99.90
2017-09-20T17:04:26.861Z,99.90
2017-09-20T17:06:54.444Z,99.90
2017-09-20T17:09:22.817Z,99.90
2017-09-20T17:11:50.455Z,99.90
2017-09-20T17:14:18.014Z,99.90
2017-09-20T17:16:45.532Z,99.90
2017-09-20T17:19:13.138Z,99.90
2017-09-20T17:21:41.497Z,99.90
2017-09-20T17:24:09.078Z,99.90
2017-09-20T17:26:38.174Z,99.90
2017-09-20T17:29:06.621Z,99.90
2017-09-20T17:31:34.218Z,99.90
2017-09-20T17:34:02.588Z,99.90
2017-09-20T17:36:30.968Z,99.90
2017-09-20T17:38:59.389Z,99.90
2017-09-20T17:41:27.107Z,99.90
2017-09-20T17:43:55.490Z,99.90
2017-09-20T17:46:23.098Z,99.90
2017-09-20T17:48:50.735Z,99.90
2017-09-20T17:51:19.096Z,99.90
2017-09-20T17:53:47.479Z,99.90
2017-09-20T17:56:15.847Z,99.90
2017-09-20T17:58:43.615Z,99.90
2017-09-20T18:01:11.576Z,99.90
2017-09-20T18:03:41.156Z,99.90
2017-09-20T18:06:08.817Z,99.90
2017-09-20T18:08:36.426Z,99.90
2017-09-20T18:11:03.997Z,99.90
2017-09-20T18:13:32.697Z,99.90
2017-09-20T18:16:01.035Z,99.90
2017-09-20T18:18:28.601Z,99.90
2017-09-20T18:20:56.359Z,99.90
2017-09-20T18:23:23.949Z,99.90
2017-09-20T18:25:52.353Z,99.90
2017-09-20T18:28:20.770Z,99.90
2017-09-20T18:30:48.430Z,99.90
2017-09-20T18:33:16.062Z,99.90
2017-09-20T18:35:44.399Z,99.90
2017-09-20T18:38:12.058Z,99.90
2017-09-20T18:40:39.915Z,99.90
2017-09-20T18:43:07.502Z,99.90
2017-09-20T18:45:35.133Z,99.90
2017-09-20T18:48:02.730Z,99.90
2017-09-20T18:50:30.560Z,99.90
2017-09-20T18:52:58.170Z,99.90
2017-09-20T18:55:25.795Z,99.90
2017-09-20T18:57:53.522Z,99.90
2017-09-20T19:00:21.152Z,99.90
2017-09-20T19:02:48.824Z,99.90
2017-09-20T19:05:16.477Z,99.90
2017-09-20T19:07:44.086Z,99.90
2017-09-20T19:10:12.593Z,99.90
2017-09-20T19:12:40.211Z,99.90
2017-09-20T19:15:08.407Z,99.90
2017-09-20T19:17:35.983Z,99.90
2017-09-20T19:20:03.555Z,99.90
2017-09-20T19:22:31.140Z,99.90
2017-09-20T19:24:59.307Z,99.90
2017-09-20T19:27:38.453Z,99.90
2017-09-20T19:30:06.107Z,99.90
2017-09-20T19:32:33.781Z,99.90
2017-09-20T19:35:01.445Z,99.90
2017-09-20T19:37:29.071Z,99.90
2017-09-20T19:39:56.750Z,99.90
2017-09-20T19:42:24.341Z,99.90
2017-09-20T19:44:51.911Z,99.90
2017-09-20T19:47:20.266Z,99.90
2017-09-20T19:49:47.869Z,99.90
2017-09-20T19:52:15.439Z,99.90
2017-09-20T19:54:43.038Z,99.90
2017-09-20T19:57:10.780Z,99.90
2017-09-20T19:59:38.634Z,99.90
2017-09-20T20:02:06.304Z,99.90
2017-09-20T20:04:33.904Z,99.90
2017-09-20T20:07:01.548Z,99.90
2017-09-20T20:09:29.130Z,99.90
2017-09-20T20:11:56.742Z,99.90
2017-09-20T20:14:24.342Z,99.90
2017-09-20T20:16:51.959Z,99.90
2017-09-20T20:19:19.557Z,99.90
2017-09-20T20:21:47.184Z,99.90
2017-09-20T20:24:14.812Z,99.90
2017-09-20T20:26:42.426Z,99.90
2017-09-20T20:29:10.032Z,99.90
2017-09-20T20:31:37.638Z,99.90
2017-09-20T20:34:06.069Z,99.90
2017-09-20T20:36:33.624Z,99.90
2017-09-20T20:39:01.278Z,99.90
2017-09-20T20:41:29.084Z,99.90
2017-09-20T20:43:56.813Z,99.90
2017-09-20T20:46:24.452Z,99.90
2017-09-20T20:48:52.239Z,99.90
2017-09-20T20:51:19.836Z,99.90
2017-09-20T20:53:47.465Z,99.90
2017-09-20T20:56:15.042Z,99.90
2017-09-20T20:58:42.664Z,99.90
2017-09-20T21:01:11.012Z,99.90
2017-09-20T21:03:38.650Z,99.90
2017-09-20T21:06:06.270Z,99.90
2017-09-20T21:08:33.872Z,99.90
2017-09-20T21:11:01.499Z,99.90
2017-09-20T21:13:29.093Z,99.90
2017-09-20T21:15:56.716Z,99.90
2017-09-20T21:18:24.460Z,99.90
2017-09-20T21:20:52.086Z,99.90
2017-09-20T21:23:19.710Z,99.90
2017-09-20T21:25:47.343Z,99.90
2017-09-20T21:28:14.969Z,99.90
2017-09-20T21:30:42.583Z,99.90
2017-09-20T21:33:10.943Z,99.90
2017-09-20T21:35:38.605Z,99.90
2017-09-20T21:38:06.194Z,99.90
2017-09-20T21:40:34.523Z,99.90
2017-09-20T21:43:02.161Z,99.90
2017-09-20T21:45:29.825Z,99.90
2017-09-20T21:47:57.453Z,99.90
2017-09-20T21:50:26.025Z,99.90
2017-09-20T21:52:53.635Z,99.90
2017-09-20T21:55:21.217Z,99.90
2017-09-20T21:57:48.826Z,99.90
2017-09-20T22:00:17.247Z,99.90
2017-09-20T22:02:44.811Z,99.90
2017-09-20T22:05:12.465Z,99.90
2017-09-20T22:07:40.043Z,99.90
2017-09-20T22:10:07.632Z,99.90
2017-09-20T22:12:35.216Z,99.90
2017-09-20T22:15:15.494Z,99.90
2017-09-20T22:17:54.996Z,99.90
2017-09-20T22:20:34.622Z,99.90
2017-09-20T22:23:14.295Z,99.90
2017-09-20T22:25:54.555Z,99.90
2017-09-20T22:28:22.926Z,99.90
2017-09-20T22:30:51.483Z,99.90
2017-09-20T22:33:19.078Z,99.90
2017-09-20T22:35:46.634Z,99.90
2017-09-20T22:38:14.226Z,99.90
2017-09-20T22:40:41.827Z,99.90
2017-09-20T22:43:09.399Z,99.90
2017-09-20T22:45:36.972Z,99.90
2017-09-20T22:48:04.666Z,99.90
2017-09-20T22:50:32.258Z,99.90
2017-09-20T22:52:59.823Z,99.90
2017-09-20T22:55:27.413Z,99.90
2017-09-20T22:57:55.767Z,99.90
2017-09-20T23:00:23.382Z,99.90
2017-09-20T23:02:51.798Z,99.90
2017-09-20T23:05:19.462Z,99.90
2017-09-20T23:07:47.053Z,99.90
2017-09-20T23:10:14.621Z,99.90
2017-09-20T23:12:42.178Z,99.90
2017-09-20T23:15:09.761Z,99.90
2017-09-20T23:17:37.375Z,99.90
2017-09-20T23:20:05.056Z,99.90
2017-09-20T23:22:32.622Z,99.90
2017-09-20T23:25:00.205Z,99.90
2017-09-20T23:27:27.814Z,99.90
2017-09-20T23:29:56.155Z,99.90
2017-09-20T23:32:23.805Z,99.90
2017-09-20T23:34:51.370Z,99.90
2017-09-20T23:37:18.952Z,99.90
2017-09-20T23:39:47.034Z,99.90
2017-09-20T23:42:14.615Z,99.90
2017-09-20T23:44:42.969Z,99.90
2017-09-20T23:47:11.498Z,99.90
2017-09-20T23:49:39.091Z,99.90
2017-09-20T23:52:06.646Z,99.90
2017-09-20T23:54:34.210Z,99.90
2017-09-20T23:57:01.793Z,99.90
2017-09-20T23:59:29.355Z,99.90
